Time;durP1;ratioP1;P1;durP2;ratioP2;P2;SDS_P1;SDS_P2;PMS_P1;PMS_P2;Temp;Humidity;BMP_temperature;BMP_pressure;BME280_temperature;BME280_humidity;BME280_pressure;Samples;Min_cycle;Max_cycle;Signal;HPM_P1;HPM_P2
2023/10/22 00:00:26;;;;;;;10.37;9.43;;;14.30;99.90;;;;;;5136782;27;20470;-82
2023/10/22 00:02:53;;;;;;;12.33;11.20;;;14.30;99.90;;;;;;5136979;27;20480;-84
2023/10/22 00:05:21;;;;;;;11.07;10.00;;;14.30;99.90;;;;;;5136046;27;20528;-80
2023/10/22 00:07:48;;;;;;;12.50;10.57;;;14.30;99.90;;;;;;5136944;27;20583;-83
2023/10/22 00:10:15;;;;;;;11.87;10.70;;;14.30;99.90;;;;;;5136001;27;20471;-83
2023/10/22 00:12:51;;;;;;;10.53;9.60;;;14.30;99.90;;;;;;5137006;27;20470;-82
2023/10/22 00:15:18;;;;;;;13.77;10.30;;;14.20;99.90;;;;;;5136606;27;20516;-81
2023/10/22 00:17:47;;;;;;;11.10;10.00;;;14.30;99.90;;;;;;5135798;27;20464;-84
2023/10/22 00:20:14;;;;;;;12.37;11.17;;;14.20;99.90;;;;;;5135849;27;20559;-84
2023/10/22 00:22:42;;;;;;;11.10;10.10;;;14.20;99.90;;;;;;5136930;27;20494;-84
2023/10/22 00:25:09;;;;;;;11.90;10.90;;;14.30;99.90;;;;;;5135999;27;20805;-80
2023/10/22 00:27:36;;;;;;;12.67;11.47;;;14.30;99.90;;;;;;5136867;27;20795;-84
2023/10/22 00:30:05;;;;;;;11.40;10.30;;;14.30;99.90;;;;;;5136194;27;20614;-83
2023/10/22 00:32:32;;;;;;;14.10;12.57;;;14.30;99.90;;;;;;5136285;27;20455;-83
2023/10/22 00:35:01;;;;;;;13.90;12.20;;;14.20;99.90;;;;;;5118234;27;20501;-80
2023/10/22 00:37:28;;;;;;;13.47;11.83;;;14.20;99.90;;;;;;5124436;27;20536;-80
2023/10/22 00:39:55;;;;;;;13.20;11.80;;;14.30;99.90;;;;;;5136419;27;20488;-80
2023/10/22 00:42:22;;;;;;;12.73;10.37;;;14.30;99.90;;;;;;5135895;27;20498;-83
2023/10/22 00:44:55;;;;;;;12.50;11.27;;;14.30;99.90;;;;;;5136132;27;20502;-80
2023/10/22 00:47:22;;;;;;;11.27;10.37;;;14.30;99.90;;;;;;5135395;27;20474;-79
2023/10/22 00:49:49;;;;;;;11.80;10.60;;;14.30;99.90;;;;;;5136234;27;20463;-80
2023/10/22 00:52:18;;;;;;;10.83;9.80;;;14.30;99.90;;;;;;5135472;27;20491;-79
2023/10/22 00:54:47;;;;;;;19.00;14.50;;;14.30;99.90;;;;;;5136171;27;20459;-80
2023/10/22 00:57:14;;;;;;;15.77;14.20;;;14.20;99.90;;;;;;5135264;27;20780;-79
2023/10/22 00:59:45;;;;;;;14.03;12.70;;;14.20;99.90;;;;;;5135971;27;20959;-80
2023/10/22 01:02:13;;;;;;;14.03;12.63;;;14.20;99.90;;;;;;5135400;27;20471;-83
2023/10/22 01:04:40;;;;;;;12.77;11.57;;;14.30;99.90;;;;;;5135686;27;20487;-83
2023/10/22 01:07:07;;;;;;;11.63;10.50;;;14.30;99.90;;;;;;5135805;27;20558;-80
2023/10/22 01:09:35;;;;;;;11.23;9.47;;;14.30;99.90;;;;;;5135181;27;20460;-80
2023/10/22 01:12:04;;;;;;;9.23;8.40;;;14.30;99.90;;;;;;5135752;27;20464;-80
2023/10/22 01:14:31;;;;;;;8.73;7.90;;;14.40;99.90;;;;;;5134428;27;20471;-80
2023/10/22 01:16:58;;;;;;;8.10;7.40;;;14.40;99.90;;;;;;5135784;27;20506;-83
2023/10/22 01:19:25;;;;;;;9.70;7.17;;;14.40;99.90;;;;;;5135280;27;20464;-80
2023/10/22 01:21:52;;;;;;;7.57;6.80;;;14.40;99.90;;;;;;5134816;27;20550;-80
2023/10/22 01:24:21;;;;;;;7.60;7.00;;;14.40;99.90;;;;;;5134762;27;20488;-84
2023/10/22 01:26:47;;;;;;;7.53;6.83;;;14.40;99.90;;;;;;5135444;27;20483;-80
2023/10/22 01:29:15;;;;;;;8.13;7.00;;;14.40;99.90;;;;;;5116573;27;20480;-80
2023/10/22 01:31:41;;;;;;;7.73;7.00;;;14.40;99.90;;;;;;5126355;27;20451;-80
2023/10/22 01:34:08;;;;;;;7.87;7.17;;;14.40;99.90;;;;;;5135215;27;20479;-81
2023/10/22 01:36:35;;;;;;;7.00;6.40;;;14.40;99.90;;;;;;5134891;27;20542;-83
2023/10/22 01:39:03;;;;;;;6.57;5.97;;;14.40;99.90;;;;;;5135065;27;20559;-80
2023/10/22 01:41:31;;;;;;;7.07;6.47;;;14.40;99.90;;;;;;5134832;27;20474;-79
2023/10/22 01:43:58;;;;;;;7.53;6.83;;;14.40;99.90;;;;;;5135020;27;20463;-81
2023/10/22 01:46:25;;;;;;;7.67;6.63;;;14.40;99.90;;;;;;5133790;27;20526;-84
2023/10/22 01:48:52;;;;;;;6.47;5.90;;;14.40;99.90;;;;;;5134906;27;20520;-80
2023/10/22 01:51:19;;;;;;;6.30;5.70;;;14.40;99.90;;;;;;5134599;27;20558;-83
2023/10/22 01:53:46;;;;;;;7.07;6.43;;;14.40;99.90;;;;;;5134544;27;20487;-82
2023/10/22 01:56:13;;;;;;;8.20;7.47;;;14.40;99.90;;;;;;5134855;27;20490;-80
2023/10/22 01:58:43;;;;;;;7.13;6.20;;;14.40;99.90;;;;;;5134774;27;20468;-83
2023/10/22 02:01:12;;;;;;;7.03;6.33;;;14.40;99.90;;;;;;5135652;27;20464;-84
2023/10/22 02:03:40;;;;;;;6.83;6.23;;;14.40;99.90;;;;;;5134061;27;20562;-81
2023/10/22 02:06:12;;;;;;;7.07;6.47;;;14.40;99.90;;;;;;5134557;27;20472;-81
2023/10/22 02:08:39;;;;;;;6.70;6.00;;;14.40;99.90;;;;;;5134441;27;20463;-79
2023/10/22 02:11:06;;;;;;;7.27;6.60;;;14.40;99.90;;;;;;5134722;27;20468;-79
2023/10/22 02:13:34;;;;;;;6.87;5.97;;;14.40;99.90;;;;;;5133821;27;20536;-80
2023/10/22 02:16:02;;;;;;;7.70;7.00;;;14.30;99.90;;;;;;5134612;27;21014;-80
2023/10/22 02:18:29;;;;;;;6.73;5.87;;;14.30;99.90;;;;;;5113820;27;20882;-80
2023/10/22 02:20:56;;;;;;;6.10;5.60;;;14.30;99.90;;;;;;5126323;27;20506;-80
2023/10/22 02:23:24;;;;;;;6.73;6.00;;;14.30;99.90;;;;;;5134600;27;20502;-80
2023/10/22 02:25:51;;;;;;;7.00;6.00;;;14.30;99.90;;;;;;5133845;27;20503;-80
2023/10/22 02:28:18;;;;;;;6.27;5.77;;;14.30;99.90;;;;;;5134309;27;20546;-83
2023/10/22 02:30:49;;;;;;;6.27;5.70;;;14.30;99.90;;;;;;5133916;27;20547;-83
2023/10/22 02:33:17;;;;;;;6.23;5.70;;;14.30;99.90;;;;;;5134392;27;20817;-80
2023/10/22 02:35:57;;;;;;;6.40;5.90;;;14.30;99.90;;;;;;5120948;27;20910;-79
2023/10/22 02:38:24;;;;;;;6.77;6.07;;;14.30;99.90;;;;;;5119919;28;20570;-80
2023/10/22 02:40:54;;;;;;;7.07;6.47;;;14.30;99.90;;;;;;5133349;27;20547;-80
2023/10/22 02:43:21;;;;;;;6.13;5.60;;;14.20;99.90;;;;;;5134211;28;20474;-83
2023/10/22 02:45:51;;;;;;;6.27;5.77;;;14.30;99.90;;;;;;5132848;28;20518;-80
2023/10/22 02:48:20;;;;;;;6.27;5.70;;;14.20;99.90;;;;;;5134410;28;20539;-80
2023/10/22 02:50:50;;;;;;;6.43;5.93;;;14.30;99.90;;;;;;5133546;28;20542;-79
2023/10/22 02:53:17;;;;;;;6.47;5.87;;;14.20;99.90;;;;;;5134223;28;20467;-80
2023/10/22 02:55:45;;;;;;;5.93;5.43;;;14.20;99.90;;;;;;5133502;28;20567;-83
2023/10/22 02:58:12;;;;;;;6.53;5.93;;;14.30;99.90;;;;;;5134279;28;20467;-83
2023/10/22 03:00:39;;;;;;;5.37;4.90;;;14.30;99.90;;;;;;5133643;28;20539;-83
2023/10/22 03:03:06;;;;;;;5.67;5.00;;;14.20;99.90;;;;;;5134143;28;21111;-80
2023/10/22 03:05:36;;;;;;;7.13;5.53;;;14.30;99.90;;;;;;5133323;28;20844;-81
2023/10/22 03:08:03;;;;;;;5.33;4.83;;;14.20;99.90;;;;;;5133650;28;20456;-80
2023/10/22 03:10:30;;;;;;;7.13;6.40;;;14.20;99.90;;;;;;5134088;28;20840;-83
2023/10/22 03:12:59;;;;;;;5.07;4.68;;;14.20;99.90;;;;;;5133398;28;20543;-83
2023/10/22 03:15:27;;;;;;;5.83;4.90;;;14.20;99.90;;;;;;5134051;28;20250;-84
2023/10/22 03:17:56;;;;;;;5.67;5.17;;;14.30;99.90;;;;;;5133109;28;20800;-83
2023/10/22 03:20:23;;;;;;;5.10;4.60;;;14.30;99.90;;;;;;5133882;28;20464;-80
2023/10/22 03:22:53;;;;;;;5.47;4.97;;;14.30;99.90;;;;;;5133453;28;20467;-83
2023/10/22 03:25:23;;;;;;;5.90;5.40;;;14.30;99.90;;;;;;5133582;28;20563;-80
2023/10/22 03:27:49;;;;;;;4.53;4.13;;;14.20;99.90;;;;;;5133462;28;20511;-83
2023/10/22 03:30:17;;;;;;;6.10;5.50;;;14.30;99.90;;;;;;5133829;28;20467;-80
2023/10/22 03:32:55;;;;;;;5.10;4.63;;;14.30;99.90;;;;;;5133471;28;20478;-80
2023/10/22 03:35:22;;;;;;;5.87;5.37;;;14.30;99.90;;;;;;5133655;28;20468;-83
2023/10/22 03:37:49;;;;;;;5.60;5.13;;;14.30;99.90;;;;;;5133951;28;20497;-83
2023/10/22 03:40:17;;;;;;;5.70;5.20;;;14.30;99.90;;;;;;5133501;28;20550;-84
2023/10/22 03:42:44;;;;;;;5.73;5.23;;;14.20;99.90;;;;;;5133449;28;20535;-83
2023/10/22 03:45:12;;;;;;;6.33;5.73;;;14.20;99.90;;;;;;5133852;28;20546;-80
2023/10/22 03:47:39;;;;;;;5.43;5.03;;;14.20;99.90;;;;;;5133229;28;20818;-83
2023/10/22 03:50:09;;;;;;;5.40;5.00;;;14.20;99.90;;;;;;5133879;28;20539;-80
2023/10/22 03:52:36;;;;;;;7.53;5.63;;;14.20;99.90;;;;;;5134259;27;20467;-84
2023/10/22 03:55:04;;;;;;;4.90;4.50;;;14.20;99.90;;;;;;5137216;27;20475;-80
2023/10/22 03:57:36;;;;;;;5.57;5.07;;;14.20;99.90;;;;;;5116311;27;20556;-82
2023/10/22 04:00:06;;;;;;;4.60;4.20;;;14.30;99.90;;;;;;5130190;27;20468;-83
2023/10/22 04:02:33;;;;;;;4.40;4.03;;;14.20;99.90;;;;;;5136893;27;20467;-82
2023/10/22 04:05:00;;;;;;;4.60;4.30;;;14.30;99.90;;;;;;5137225;27;20510;-82
2023/10/22 04:07:27;;;;;;;4.40;3.90;;;14.30;99.90;;;;;;5136583;27;20543;-82
2023/10/22 04:09:54;;;;;;;4.80;4.40;;;14.30;99.90;;;;;;5137400;27;20550;-80
2023/10/22 04:12:22;;;;;;;4.80;4.30;;;14.40;99.90;;;;;;5136619;27;20524;-80
2023/10/22 04:14:50;;;;;;;5.17;4.67;;;14.40;99.90;;;;;;5136238;27;20456;-80
2023/10/22 04:17:17;;;;;;;4.53;4.20;;;14.40;99.90;;;;;;5136862;27;20547;-82
2023/10/22 04:19:52;;;;;;;5.77;4.63;;;14.40;99.90;;;;;;5123521;27;20478;-79
2023/10/22 04:22:18;;;;;;;4.43;4.03;;;14.30;99.90;;;;;;5122755;27;20465;-84
2023/10/22 04:24:46;;;;;;;5.40;4.10;;;14.30;99.90;;;;;;5137025;27;20969;-83
2023/10/22 04:27:13;;;;;;;4.33;3.60;;;14.30;99.90;;;;;;5136851;27;20479;-80
2023/10/22 04:29:44;;;;;;;6.43;4.70;;;14.30;99.90;;;;;;5135390;27;20483;-80
2023/10/22 04:32:12;;;;;;;4.10;3.70;;;14.30;99.90;;;;;;5136173;27;20488;-80
2023/10/22 04:34:39;;;;;;;4.20;3.80;;;14.30;99.90;;;;;;5182798;22;20546;-81
2023/10/22 04:37:07;;;;;;;5.00;4.50;;;14.30;99.90;;;;;;5136051;27;20474;-80
2023/10/22 04:39:34;;;;;;;3.97;3.67;;;14.30;99.90;;;;;;5136361;27;20475;-81
2023/10/22 04:42:01;;;;;;;5.10;4.70;;;14.20;99.90;;;;;;5136011;27;20499;-80
2023/10/22 04:44:28;;;;;;;3.83;3.50;;;14.20;99.90;;;;;;5136318;27;20808;-80
2023/10/22 04:46:55;;;;;;;5.00;4.60;;;14.20;99.90;;;;;;5135726;27;20556;-80
2023/10/22 04:49:24;;;;;;;4.50;4.20;;;14.20;99.90;;;;;;5136265;27;20566;-80
2023/10/22 04:51:51;;;;;;;3.87;3.57;;;14.10;99.90;;;;;;5135899;27;20577;-80
2023/10/22 04:54:18;;;;;;;5.80;5.20;;;14.10;99.90;;;;;;5136102;27;20488;-80
2023/10/22 04:56:51;;;;;;;7.87;5.30;;;14.10;99.90;;;;;;5124438;27;20534;-80
2023/10/22 04:59:19;;;;;;;4.93;4.43;;;14.10;99.90;;;;;;5135451;27;20463;-83
2023/10/22 05:01:45;;;;;;;4.47;4.07;;;14.10;99.90;;;;;;5135991;27;20459;-79
2023/10/22 05:04:12;;;;;;;4.13;3.83;;;14.20;99.90;;;;;;5134396;27;20546;-82
2023/10/22 05:06:41;;;;;;;6.63;5.13;;;14.10;99.90;;;;;;5135926;27;20953;-83
2023/10/22 05:09:08;;;;;;;5.40;4.90;;;14.10;99.90;;;;;;5135496;27;20460;-80
2023/10/22 05:11:35;;;;;;;5.37;4.97;;;14.10;99.90;;;;;;5136002;27;20464;-83
2023/10/22 05:14:03;;;;;;;5.83;5.23;;;14.10;99.90;;;;;;5135376;27;20914;-84
2023/10/22 05:16:30;;;;;;;4.73;4.40;;;14.00;99.90;;;;;;5135549;27;20553;-80
2023/10/22 05:18:57;;;;;;;5.50;4.97;;;14.00;99.90;;;;;;5134248;27;20580;-80
2023/10/22 05:21:24;;;;;;;4.60;4.30;;;14.00;99.90;;;;;;5135596;27;20551;-79
2023/10/22 05:23:52;;;;;;;5.57;5.17;;;14.00;99.90;;;;;;5134630;27;20471;-79
2023/10/22 05:26:19;;;;;;;5.03;4.63;;;14.10;99.90;;;;;;5135318;27;20956;-80
2023/10/22 05:28:46;;;;;;;4.27;3.97;;;14.10;99.90;;;;;;5135609;27;20532;-83
2023/10/22 05:31:14;;;;;;;4.63;4.23;;;14.10;99.90;;;;;;5135085;27;20542;-83
2023/10/22 05:33:42;;;;;;;4.73;4.30;;;14.10;99.90;;;;;;5135046;27;20472;-83
2023/10/22 05:36:16;;;;;;;5.70;5.10;;;14.10;99.90;;;;;;5134418;27;20478;-83
2023/10/22 05:38:43;;;;;;;5.20;4.70;;;14.10;99.90;;;;;;5135582;27;20459;-79
2023/10/22 05:41:18;;;;;;;4.90;4.50;;;14.10;99.90;;;;;;5134775;27;20502;-81
2023/10/22 05:43:45;;;;;;;4.90;4.43;;;14.10;99.90;;;;;;5135070;27;20528;-80
2023/10/22 05:46:12;;;;;;;5.00;4.70;;;14.10;99.90;;;;;;5134380;27;22052;-83
2023/10/22 05:48:39;;;;;;;4.53;4.23;;;14.10;99.90;;;;;;5135081;27;20459;-84
2023/10/22 05:51:06;;;;;;;3.83;3.53;;;14.10;99.90;;;;;;5134406;27;20877;-84
2023/10/22 05:53:33;;;;;;;5.30;4.90;;;14.10;99.90;;;;;;5135209;27;20576;-82
2023/10/22 05:56:00;;;;;;;5.37;4.97;;;14.10;99.90;;;;;;5134099;27;20570;-83
2023/10/22 05:58:28;;;;;;;5.50;5.00;;;14.10;99.90;;;;;;5135181;27;20960;-83
2023/10/22 06:00:57;;;;;;;3.80;3.60;;;14.10;99.90;;;;;;5134801;27;20488;-81
2023/10/22 06:03:24;;;;;;;6.07;5.13;;;14.10;99.90;;;;;;5135100;27;20555;-84
2023/10/22 06:05:51;;;;;;;4.80;4.20;;;14.10;99.90;;;;;;5135686;27;20524;-83
2023/10/22 06:08:18;;;;;;;4.50;4.20;;;14.20;99.90;;;;;;5133998;27;20455;-80
2023/10/22 06:10:47;;;;;;;5.20;4.67;;;14.20;99.90;;;;;;5134919;27;20961;-83
2023/10/22 06:13:14;;;;;;;8.70;4.50;;;14.20;99.90;;;;;;5133197;27;20488;-80
2023/10/22 06:15:44;;;;;;;3.57;3.27;;;14.20;99.90;;;;;;5133684;27;20474;-83
2023/10/22 06:18:11;;;;;;;4.10;3.70;;;14.20;99.90;;;;;;5134098;27;20555;-83
2023/10/22 06:20:39;;;;;;;6.73;4.63;;;14.20;99.90;;;;;;5134634;27;20491;-80
2023/10/22 06:23:07;;;;;;;5.20;4.70;;;14.20;99.90;;;;;;5122630;27;20487;-83
2023/10/22 06:25:35;;;;;;;6.00;5.40;;;14.20;99.90;;;;;;5135170;27;20795;-83
2023/10/22 06:28:03;;;;;;;5.97;5.37;;;14.20;99.90;;;;;;5134309;27;20464;-84
2023/10/22 06:30:30;;;;;;;4.50;4.10;;;14.20;99.90;;;;;;5134585;27;20538;-80
2023/10/22 06:33:00;;;;;;;5.77;5.17;;;14.20;99.90;;;;;;5135213;27;20521;-84
2023/10/22 06:35:32;;;;;;;4.70;4.30;;;14.20;99.90;;;;;;5134006;27;20448;-80
2023/10/22 06:37:59;;;;;;;5.37;5.00;;;14.20;99.90;;;;;;5134946;27;20502;-83
2023/10/22 06:40:26;;;;;;;5.87;5.40;;;14.20;99.90;;;;;;5133547;27;20997;-83
2023/10/22 06:42:53;;;;;;;5.87;5.23;;;14.20;99.90;;;;;;5134465;27;20859;-84
2023/10/22 06:45:20;;;;;;;4.80;4.40;;;14.20;99.90;;;;;;5133833;27;20981;-79
2023/10/22 06:47:47;;;;;;;5.23;4.73;;;14.20;99.90;;;;;;5120588;27;20494;-83
2023/10/22 06:50:16;;;;;;;5.10;4.70;;;14.20;99.90;;;;;;5133910;27;20542;-83
2023/10/22 06:52:43;;;;;;;4.57;4.27;;;14.20;99.90;;;;;;5134213;27;20779;-83
2023/10/22 06:55:11;;;;;;;5.27;4.83;;;14.20;99.90;;;;;;5133576;27;20807;-80
2023/10/22 06:57:38;;;;;;;5.80;5.30;;;14.30;99.90;;;;;;5134538;27;20471;-80
2023/10/22 07:00:09;;;;;;;5.40;5.00;;;14.20;99.90;;;;;;5134874;27;20471;-82
2023/10/22 07:02:36;;;;;;;4.90;4.37;;;14.20;99.90;;;;;;5133737;27;20484;-80
2023/10/22 07:05:04;;;;;;;5.00;4.57;;;14.20;99.90;;;;;;5133993;27;20542;-81
2023/10/22 07:07:32;;;;;;;5.40;4.90;;;14.20;99.90;;;;;;5133881;27;20468;-80
2023/10/22 07:09:59;;;;;;;6.37;4.63;;;14.20;99.90;;;;;;5134867;27;20543;-84
2023/10/22 07:12:28;;;;;;;5.00;4.50;;;14.20;99.90;;;;;;5134488;27;20479;-84
2023/10/22 07:14:55;;;;;;;6.57;5.43;;;14.20;99.90;;;;;;5134241;27;20254;-84
2023/10/22 07:17:22;;;;;;;5.32;4.82;;;14.20;99.90;;;;;;5134052;27;20475;-83
2023/10/22 07:19:49;;;;;;;4.70;4.40;;;14.20;99.90;;;;;;5134564;27;20218;-83
2023/10/22 07:22:27;;;;;;;5.93;5.17;;;14.20;99.90;;;;;;5133200;27;20857;-80
2023/10/22 07:25:03;;;;;;;4.67;4.27;;;14.30;99.90;;;;;;5133496;27;20471;-80
2023/10/22 07:27:36;;;;;;;5.03;4.63;;;14.20;99.90;;;;;;5135658;27;20463;-80
2023/10/22 07:30:07;;;;;;;4.23;3.40;;;14.30;99.90;;;;;;5138041;27;21036;-80
2023/10/22 07:32:37;;;;;;;4.40;4.00;;;14.30;99.90;;;;;;5137164;27;20463;-80
2023/10/22 07:35:09;;;;;;;3.90;3.60;;;14.30;99.90;;;;;;5136470;27;21032;-80
2023/10/22 07:37:51;;;;;;;3.80;3.50;;;14.30;99.90;;;;;;5125035;27;20567;-81
2023/10/22 07:40:27;;;;;;;5.20;4.53;;;14.30;99.90;;;;;;5126028;27;20542;-80
2023/10/22 07:43:00;;;;;;;6.10;5.50;;;14.40;99.90;;;;;;5128102;27;20933;-80
2023/10/22 07:45:41;;;;;;;4.67;4.37;;;14.40;99.90;;;;;;5137580;27;20550;-81
2023/10/22 07:48:27;;;;;;;5.23;3.70;;;14.50;99.90;;;;;;5120662;27;20528;-80
2023/10/22 07:51:08;;;;;;;3.70;3.20;;;14.50;99.90;;;;;;5138629;27;20470;-80
2023/10/22 07:53:41;;;;;;;3.20;2.90;;;14.50;99.90;;;;;;5137922;27;20452;-79
2023/10/22 07:56:43;;;;;;;3.87;3.57;;;14.60;99.90;;;;;;5137043;27;20512;-79
2023/10/22 07:59:10;;;;;;;4.17;3.87;;;14.60;99.90;;;;;;5124106;27;20483;-80
2023/10/22 08:01:37;;;;;;;4.43;4.13;;;14.70;99.90;;;;;;5125930;27;20479;-79
2023/10/22 08:04:05;;;;;;;4.10;3.70;;;14.70;99.90;;;;;;5136516;27;21032;-83
2023/10/22 08:06:32;;;;;;;4.80;3.80;;;14.80;99.90;;;;;;5137871;27;20456;-79
2023/10/22 08:09:02;;;;;;;3.43;3.07;;;14.80;99.90;;;;;;5137149;27;20487;-83
2023/10/22 08:11:32;;;;;;;3.93;3.63;;;14.80;99.90;;;;;;5138070;27;20534;-83
2023/10/22 08:14:00;;;;;;;3.10;2.80;;;14.90;99.90;;;;;;5136585;27;21010;-80
2023/10/22 08:16:28;;;;;;;4.40;3.10;;;15.00;99.90;;;;;;5136968;27;20455;-79
2023/10/22 08:18:55;;;;;;;3.93;3.53;;;15.10;99.90;;;;;;5137317;27;20547;-82
2023/10/22 08:21:25;;;;;;;9.60;8.47;;;15.10;99.90;;;;;;5137350;27;20929;-83
2023/10/22 08:23:52;;;;;;;4.43;4.03;;;15.10;99.90;;;;;;5137752;27;20467;-83
2023/10/22 08:26:21;;;;;;;5.63;5.13;;;15.20;99.90;;;;;;5135921;27;20634;-80
2023/10/22 08:28:48;;;;;;;3.90;3.57;;;15.20;99.90;;;;;;5137612;27;20463;-80
2023/10/22 08:31:16;;;;;;;4.10;3.70;;;15.20;99.90;;;;;;5136110;27;20482;-80
2023/10/22 08:33:43;;;;;;;2.97;2.37;;;15.30;99.90;;;;;;5136837;27;20471;-80
2023/10/22 08:36:10;;;;;;;4.17;2.80;;;15.30;99.90;;;;;;5135985;27;20803;-80
2023/10/22 08:38:40;;;;;;;2.47;2.27;;;15.30;99.90;;;;;;5136187;27;20459;-80
2023/10/22 08:41:15;;;;;;;2.90;2.60;;;15.40;99.90;;;;;;5138244;27;20479;-80
2023/10/22 08:43:46;;;;;;;2.90;2.53;;;15.50;99.90;;;;;;5136408;27;20463;-81
2023/10/22 08:46:13;;;;;;;2.90;2.30;;;15.50;99.90;;;;;;5123809;27;20566;-80
2023/10/22 08:48:46;;;;;;;2.00;1.87;;;15.50;99.90;;;;;;5136120;27;20790;-79
2023/10/22 08:51:13;;;;;;;3.97;2.33;;;15.60;99.90;;;;;;5137184;27;20964;-83
2023/10/22 08:53:40;;;;;;;2.27;2.00;;;15.70;99.90;;;;;;5137147;27;20953;-83
2023/10/22 08:56:07;;;;;;;3.37;2.00;;;15.70;99.90;;;;;;5137715;27;20506;-83
2023/10/22 08:58:36;;;;;;;4.07;3.63;;;15.70;99.90;;;;;;5136529;27;20949;-83
2023/10/22 09:01:08;;;;;;;9.23;7.30;;;15.80;99.90;;;;;;5136123;27;20980;-80
2023/10/22 09:03:35;;;;;;;8.80;6.20;;;15.70;99.90;;;;;;5135452;27;20470;-80
2023/10/22 09:06:05;;;;;;;5.43;4.93;;;15.70;99.90;;;;;;5127388;27;20485;-83
2023/10/22 09:08:43;;;;;;;5.80;2.90;;;15.80;99.90;;;;;;5135199;27;20460;-83
2023/10/22 09:11:15;;;;;;;3.30;2.00;;;15.80;99.90;;;;;;5135390;27;20464;-83
2023/10/22 09:13:46;;;;;;;1.80;1.67;;;15.80;99.90;;;;;;5136553;27;20452;-83
2023/10/22 09:16:27;;;;;;;2.20;2.00;;;15.90;99.90;;;;;;5135875;27;20487;-84
2023/10/22 09:18:54;;;;;;;2.70;2.17;;;15.90;99.90;;;;;;5137238;27;20984;-84
2023/10/22 09:21:40;;;;;;;1.90;1.73;;;15.90;99.90;;;;;;5135904;27;20502;-84
2023/10/22 09:24:07;;;;;;;2.57;2.37;;;15.90;99.90;;;;;;5135348;27;20460;-83
2023/10/22 09:26:49;;;;;;;2.10;1.90;;;15.90;99.90;;;;;;5138103;27;20495;-82
2023/10/22 09:29:16;;;;;;;2.30;2.10;;;16.00;99.90;;;;;;5136459;27;20474;-83
2023/10/22 09:31:50;;;;;;;1.43;1.33;;;15.90;99.90;;;;;;5137903;27;20467;-83
2023/10/22 09:34:30;;;;;;;2.27;2.07;;;15.90;99.90;;;;;;5135381;27;20483;-83
2023/10/22 09:36:59;;;;;;;1.73;1.63;;;15.90;99.90;;;;;;5135710;27;20459;-83
2023/10/22 09:39:38;;;;;;;2.23;2.00;;;16.00;99.90;;;;;;5134240;27;20455;-83
2023/10/22 09:42:06;;;;;;;2.50;2.30;;;16.00;99.90;;;;;;5138137;27;20463;-83
2023/10/22 09:44:33;;;;;;;2.00;1.80;;;16.00;99.90;;;;;;5138318;27;20548;-82
2023/10/22 09:47:14;;;;;;;2.03;1.67;;;16.00;99.90;;;;;;5138350;27;20579;-82
2023/10/22 09:49:45;;;;;;;2.60;1.73;;;16.00;99.90;;;;;;5137210;27;20459;-83
2023/10/22 09:52:15;;;;;;;4.80;4.20;;;16.00;99.90;;;;;;5136598;27;20926;-79
2023/10/22 09:54:44;;;;;;;5.27;4.33;;;15.90;99.90;;;;;;5134319;27;20540;-80
2023/10/22 09:57:23;;;;;;;2.77;2.57;;;15.90;99.90;;;;;;5139985;27;20761;-81
2023/10/22 09:59:53;;;;;;;3.83;1.93;;;15.90;99.90;;;;;;5126692;27;20562;-83
2023/10/22 10:02:20;;;;;;;2.40;1.90;;;15.90;99.90;;;;;;5140337;27;20455;-81
2023/10/22 10:04:52;;;;;;;2.33;1.97;;;15.90;99.90;;;;;;5133712;27;20984;-80
2023/10/22 10:07:22;;;;;;;2.93;1.90;;;15.90;99.90;;;;;;5135388;27;20464;-80
2023/10/22 10:09:51;;;;;;;1.63;1.53;;;15.90;99.90;;;;;;5134365;27;20528;-80
2023/10/22 10:12:18;;;;;;;3.77;2.30;;;15.90;99.90;;;;;;5123164;27;20466;-83
2023/10/22 10:14:47;;;;;;;2.67;1.87;;;15.90;99.90;;;;;;5135187;27;20475;-83
2023/10/22 10:17:17;;;;;;;2.13;1.93;;;15.90;99.90;;;;;;5135049;27;20528;-79
2023/10/22 10:19:48;;;;;;;1.80;1.70;;;15.90;99.90;;;;;;5134012;27;20871;-83
2023/10/22 10:22:50;;;;;;;;;;;;;;;;;;;;;
2023/10/22 10:25:28;;;;;;;1.93;1.73;;;15.90;99.90;;;;;;5130568;27;20471;-80
2023/10/22 10:27:56;;;;;;;1.93;1.77;;;15.90;99.90;;;;;;5134157;27;20479;-79
2023/10/22 10:30:23;;;;;;;1.70;1.17;;;15.90;99.90;;;;;;5134153;27;20459;-80
2023/10/22 10:32:58;;;;;;;4.93;4.30;;;15.90;99.90;;;;;;5122913;27;20483;-80
2023/10/22 10:35:29;;;;;;;5.50;4.07;;;16.00;99.90;;;;;;5133873;27;20909;-80
2023/10/22 10:38:25;;;;;;;2.70;2.10;;;16.00;99.90;;;;;;5135035;27;21012;-80
2023/10/22 10:40:54;;;;;;;5.33;2.33;;;16.00;99.90;;;;;;5111434;27;20748;-79
2023/10/22 10:43:23;;;;;;;4.13;2.40;;;16.00;99.90;;;;;;5137357;27;20554;-83
2023/10/22 10:46:25;;;;;;;6.83;4.93;;;16.00;99.90;;;;;;5124059;27;20495;-80
2023/10/22 10:48:55;;;;;;;3.70;3.17;;;16.10;99.90;;;;;;5134003;27;20481;-80
2023/10/22 10:51:25;;;;;;;3.57;2.63;;;16.10;99.90;;;;;;5130228;27;20464;-84
2023/10/22 10:54:31;;;;;;;3.53;1.73;;;16.10;99.90;;;;;;5139727;27;20489;-83
2023/10/22 10:57:06;;;;;;;2.13;1.90;;;16.10;99.90;;;;;;5135920;27;20758;-84
2023/10/22 10:59:34;;;;;;;1.63;1.23;;;16.10;99.90;;;;;;5129947;27;20474;-83
2023/10/22 11:02:03;;;;;;;1.80;1.53;;;16.10;99.90;;;;;;5139734;27;20950;-82
2023/10/22 11:04:34;;;;;;;2.40;1.73;;;16.20;99.90;;;;;;5142500;27;20468;-82
2023/10/22 11:07:05;;;;;;;3.23;1.73;;;16.20;99.90;;;;;;5143611;27;20488;-83
2023/10/22 11:09:39;;;;;;;3.33;2.10;;;16.20;99.90;;;;;;5140070;27;20852;-80
2023/10/22 11:12:09;;;;;;;2.80;1.80;;;16.20;99.90;;;;;;5127910;27;20470;-83
2023/10/22 11:14:37;;;;;;;1.60;1.50;;;16.20;99.90;;;;;;5141916;27;20875;-83
2023/10/22 11:17:04;;;;;;;2.50;1.60;;;16.30;99.90;;;;;;5131272;27;20952;-83
2023/10/22 11:19:35;;;;;;;2.23;1.90;;;16.30;99.90;;;;;;5144585;27;20454;-82
2023/10/22 11:22:02;;;;;;;2.70;1.83;;;16.40;99.90;;;;;;5140610;27;20471;-84
2023/10/22 11:24:33;;;;;;;2.70;1.60;;;16.50;99.90;;;;;;5138980;27;20839;-84
2023/10/22 11:27:04;;;;;;;2.57;1.70;;;16.50;99.90;;;;;;5121307;27;20471;-83
2023/10/22 11:29:40;;;;;;;3.70;1.97;;;16.60;99.90;;;;;;5129069;27;20772;-81
2023/10/22 11:32:12;;;;;;;3.33;1.50;;;16.60;99.90;;;;;;5137184;27;20463;-79
2023/10/22 11:34:49;;;;;;;4.40;1.90;;;16.70;99.90;;;;;;5136405;27;20483;-80
2023/10/22 11:37:20;;;;;;;1.50;1.40;;;16.70;99.90;;;;;;5137720;27;20934;-81
2023/10/22 11:39:53;;;;;;;3.20;1.63;;;16.80;99.90;;;;;;5137657;27;20562;-80
2023/10/22 11:42:22;;;;;;;2.60;1.50;;;16.80;99.90;;;;;;5138782;27;20550;-83
2023/10/22 11:44:56;;;;;;;5.00;1.97;;;16.90;99.90;;;;;;5136419;27;20479;-82
2023/10/22 11:47:25;;;;;;;3.27;1.50;;;16.90;99.90;;;;;;5138920;27;20847;-79
2023/10/22 11:49:55;;;;;;;2.20;2.00;;;17.00;99.90;;;;;;5138737;27;20471;-80
2023/10/22 11:52:40;;;;;;;2.30;2.07;;;17.00;99.90;;;;;;5138900;27;20524;-80
2023/10/22 11:55:09;;;;;;;3.80;2.00;;;17.00;99.90;;;;;;5138709;27;20475;-83
2023/10/22 11:57:38;;;;;;;5.03;1.83;;;17.00;99.90;;;;;;5139147;27;20456;-79
2023/10/22 12:00:09;;;;;;;2.30;1.60;;;17.10;99.90;;;;;;5137302;27;20491;-83
2023/10/22 12:02:37;;;;;;;3.20;1.80;;;17.10;99.90;;;;;;5138157;27;20462;-80
2023/10/22 12:05:04;;;;;;;2.53;2.10;;;17.20;99.90;;;;;;5138302;27;20797;-82
2023/10/22 12:07:31;;;;;;;2.13;1.40;;;17.20;99.90;;;;;;5137459;27;20459;-83
2023/10/22 12:09:59;;;;;;;4.00;1.33;;;17.30;99.90;;;;;;5137876;27;20845;-80
2023/10/22 12:12:29;;;;;;;3.33;1.63;;;17.30;99.90;;;;;;5135883;27;20504;-83
2023/10/22 12:14:56;;;;;;;3.40;2.70;;;17.40;99.90;;;;;;5139331;27;20472;-80
2023/10/22 12:17:25;;;;;;;2.47;2.07;;;17.40;99.90;;;;;;5137862;27;20968;-82
2023/10/22 12:19:56;;;;;;;5.07;4.30;;;17.50;99.90;;;;;;5128538;27;20869;-84
2023/10/22 12:22:26;;;;;;;5.50;4.20;;;17.50;99.90;;;;;;5136397;27;20471;-83
2023/10/22 12:24:54;;;;;;;8.90;5.30;;;17.50;99.90;;;;;;5138889;27;20976;-79
2023/10/22 12:27:26;;;;;;;6.00;2.63;;;17.50;99.90;;;;;;5137711;27;20468;-80
2023/10/22 12:29:55;;;;;;;3.37;1.90;;;17.60;99.90;;;;;;5126911;27;20472;-80
2023/10/22 12:32:23;;;;;;;3.33;1.70;;;17.60;99.90;;;;;;5135185;27;20468;-80
2023/10/22 12:34:54;;;;;;;1.70;1.50;;;17.70;99.90;;;;;;5133722;27;20488;-81
2023/10/22 12:37:23;;;;;;;1.90;1.70;;;17.70;99.90;;;;;;5135554;27;20466;-83
2023/10/22 12:39:51;;;;;;;3.33;1.47;;;17.70;99.90;;;;;;5136735;27;20513;-83
2023/10/22 12:42:19;;;;;;;3.63;1.67;;;17.80;99.90;;;;;;5122272;27;20547;-82
2023/10/22 12:44:47;;;;;;;1.43;1.30;;;17.80;99.90;;;;;;5134798;27;20487;-80
2023/10/22 12:47:14;;;;;;;3.50;2.30;;;17.80;99.90;;;;;;5134831;27;20460;-78
2023/10/22 12:49:49;;;;;;;2.13;1.37;;;17.80;99.90;;;;;;5133490;27;20459;-81
2023/10/22 12:52:16;;;;;;;2.13;1.47;;;17.80;99.90;;;;;;5135136;27;20550;-83
2023/10/22 12:54:44;;;;;;;1.80;1.23;;;17.80;99.90;;;;;;5119430;27;20468;-83
2023/10/22 12:57:14;;;;;;;1.40;1.30;;;17.80;99.90;;;;;;5136286;27;20479;-83